createdAt,value
2022-08-10T00:01:55.621Z,8.90
2022-08-10T00:04:25.880Z,8.30
2022-08-10T00:06:56.446Z,8.55
2022-08-10T00:09:26.365Z,8.82
2022-08-10T00:11:55.599Z,9.38
2022-08-10T00:14:24.845Z,9.20
2022-08-10T00:16:55.046Z,9.00
2022-08-10T00:19:24.076Z,9.85
2022-08-10T00:21:53.228Z,9.60
2022-08-10T00:24:22.263Z,8.82
2022-08-10T00:28:01.473Z,9.55
2022-08-10T00:29:40.447Z,9.05
2022-08-10T00:32:10.956Z,10.00
2022-08-10T00:34:40.045Z,9.38
2022-08-10T00:37:09.288Z,10.05
2022-08-10T00:39:39.415Z,9.65
2022-08-10T00:42:10.313Z,9.73
2022-08-10T00:44:42.020Z,10.25
2022-08-10T00:47:22.570Z,9.70
2022-08-10T00:50:02.972Z,8.48
2022-08-10T00:52:33.410Z,10.48
2022-08-10T00:55:04.351Z,9.57
2022-08-10T00:57:35.248Z,9.18
2022-08-10T01:00:05.438Z,10.32
2022-08-10T01:02:36.379Z,9.90
2022-08-10T01:05:08.916Z,10.15
2022-08-10T01:08:16.596Z,10.23
2022-08-10T01:10:54.571Z,8.77
2022-08-10T01:13:32.527Z,9.65
2022-08-10T01:16:06.631Z,9.50
2022-08-10T01:18:44.097Z,10.07
2022-08-10T01:21:41.861Z,8.90
2022-08-10T01:24:47.060Z,9.70
2022-08-10T01:27:31.340Z,8.85
2022-08-10T01:30:05.542Z,9.40
2022-08-10T01:32:50.330Z,9.90
2022-08-10T01:35:27.853Z,8.73
2022-08-10T01:38:04.715Z,9.90
2022-08-10T01:40:38.094Z,8.65
2022-08-10T01:43:11.184Z,8.98
2022-08-10T01:45:46.595Z,9.88
2022-08-10T01:48:32.023Z,9.95
2022-08-10T01:51:14.712Z,8.90
2022-08-10T01:53:52.142Z,9.15
2022-08-10T01:56:24.599Z,8.48
2022-08-10T01:58:57.654Z,9.23
2022-08-10T02:01:39.030Z,9.32
2022-08-10T02:04:11.113Z,9.60
2022-08-10T02:06:44.600Z,8.40
2022-08-10T02:09:16.619Z,9.15
2022-08-10T02:11:57.529Z,9.82
2022-08-10T02:14:49.310Z,9.07
2022-08-10T02:17:59.126Z,7.97
2022-08-10T02:20:18.337Z,8.65
2022-08-10T02:22:52.019Z,9.95
2022-08-10T02:25:41.909Z,8.68
2022-08-10T02:28:27.092Z,8.63
2022-08-10T02:30:58.964Z,8.95
2022-08-10T02:33:30.915Z,8.10
2022-08-10T02:36:03.184Z,8.73
2022-08-10T02:38:58.325Z,8.55
2022-08-10T02:45:03.022Z,8.85
2022-08-10T02:45:20.719Z,8.63
2022-08-10T02:47:26.872Z,8.27
2022-08-10T02:50:04.806Z,8.35
2022-08-10T02:52:40.004Z,8.95
2022-08-10T02:55:27.129Z,9.50
2022-08-10T02:58:16.676Z,8.05
2022-08-10T03:00:50.825Z,8.48
2022-08-10T03:03:22.468Z,8.85
2022-08-10T03:05:56.771Z,8.35
2022-08-10T03:08:29.624Z,9.05
2022-08-10T03:16:12.787Z,9.75
2022-08-10T03:18:42.543Z,8.82
2022-08-10T03:21:16.343Z,8.65
2022-08-10T03:23:46.811Z,7.88
2022-08-10T03:26:20.567Z,8.38
2022-08-10T03:28:50.761Z,9.32
2022-08-10T03:31:20.862Z,8.55
2022-08-10T03:33:51.236Z,8.95
2022-08-10T03:36:40.037Z,8.48
2022-08-10T03:39:11.969Z,8.38
2022-08-10T03:41:53.428Z,8.63
2022-08-10T03:44:26.577Z,8.00
2022-08-10T03:46:56.924Z,8.55
2022-08-10T03:49:28.765Z,8.98
2022-08-10T03:51:59.959Z,8.85
2022-08-10T03:54:29.780Z,8.77
2022-08-10T03:56:58.856Z,9.55
2022-08-10T03:59:28.183Z,8.85
2022-08-10T04:02:45.529Z,9.20
2022-08-10T04:04:47.299Z,9.15
2022-08-10T04:07:18.266Z,8.90
2022-08-10T04:09:54.118Z,8.77
2022-08-10T04:12:25.455Z,9.38
2022-08-10T04:14:54.523Z,8.75
2022-08-10T04:17:59.475Z,8.27
2022-08-10T04:20:20.375Z,9.02
2022-08-10T04:22:54.618Z,8.85
2022-08-10T04:25:26.122Z,9.38
2022-08-10T04:27:56.403Z,9.00
2022-08-10T04:30:27.917Z,9.20
2022-08-10T04:32:59.887Z,8.80
2022-08-10T04:35:31.122Z,8.77
2022-08-10T04:38:03.867Z,8.65
2022-08-10T04:40:33.149Z,8.60
2022-08-10T04:43:11.285Z,9.40
2022-08-10T04:45:49.519Z,8.90
2022-08-10T04:48:40.839Z,8.27
2022-08-10T04:51:17.367Z,7.88
2022-08-10T04:54:03.747Z,7.45
2022-08-10T04:56:37.795Z,7.68
2022-08-10T04:59:07.795Z,8.50
2022-08-10T05:02:22.909Z,8.40
2022-08-10T05:04:35.981Z,7.65
2022-08-10T05:07:16.240Z,7.93
2022-08-10T05:10:03.044Z,7.35
2022-08-10T05:12:37.819Z,7.60
2022-08-10T05:15:12.658Z,7.18
2022-08-10T05:18:04.528Z,6.90
2022-08-10T05:20:33.115Z,6.72
2022-08-10T05:23:02.380Z,6.78
2022-08-10T05:25:37.282Z,6.75
2022-08-10T05:28:07.517Z,5.70
2022-08-10T05:30:36.463Z,6.38
2022-08-10T05:33:08.844Z,6.15
2022-08-10T05:35:56.689Z,5.75
2022-08-10T05:38:28.779Z,5.70
2022-08-10T05:40:59.765Z,5.32
2022-08-10T05:43:29.221Z,5.13
2022-08-10T05:46:19.687Z,5.93
2022-08-10T05:48:56.594Z,5.50
2022-08-10T05:51:30.743Z,4.10
2022-08-10T05:54:04.450Z,4.03
2022-08-10T05:56:55.752Z,4.50
2022-08-10T06:00:10.923Z,4.60
2022-08-10T06:02:31.785Z,4.10
2022-08-10T06:05:13.105Z,4.32
2022-08-10T06:07:54.069Z,3.88
2022-08-10T06:10:32.081Z,3.60
2022-08-10T06:13:26.952Z,3.38
2022-08-10T06:16:04.692Z,3.53
2022-08-10T06:18:34.815Z,3.17
2022-08-10T06:21:04.729Z,3.10
2022-08-10T06:23:34.753Z,2.80
2022-08-10T06:26:08.728Z,2.97
2022-08-10T06:29:02.129Z,3.58
2022-08-10T06:31:48.820Z,3.58
2022-08-10T06:34:25.599Z,2.47
2022-08-10T06:36:58.651Z,3.00
2022-08-10T06:39:36.348Z,2.60
2022-08-10T06:42:16.110Z,2.47
2022-08-10T06:44:54.218Z,2.35
2022-08-10T06:47:30.123Z,2.50
2022-08-10T06:50:04.917Z,2.55
2022-08-10T06:52:39.492Z,2.65
2022-08-10T06:55:16.862Z,3.25
2022-08-10T06:57:59.677Z,2.67
2022-08-10T07:00:34.477Z,2.30
2022-08-10T07:03:10.609Z,2.22
2022-08-10T07:05:46.831Z,2.65
2022-08-10T07:08:21.767Z,2.10
2022-08-10T07:10:52.545Z,2.33
2022-08-10T07:14:14.131Z,2.50
2022-08-10T07:16:15.019Z,2.28
2022-08-10T07:18:46.204Z,2.20
2022-08-10T07:21:16.438Z,2.13
2022-08-10T07:23:57.240Z,2.45
2022-08-10T07:26:31.527Z,2.40
2022-08-10T07:29:01.723Z,2.50
2022-08-10T07:31:56.041Z,2.60
2022-08-10T07:34:29.422Z,1.95
2022-08-10T07:37:03.673Z,2.17
2022-08-10T07:40:03.679Z,2.47
2022-08-10T07:42:31.275Z,2.20
2022-08-10T07:45:00.710Z,1.77
2022-08-10T07:47:52.990Z,1.80
2022-08-10T07:50:25.534Z,1.80
2022-08-10T07:52:58.207Z,1.80
2022-08-10T07:56:01.688Z,2.20
2022-08-10T07:58:19.928Z,2.42
2022-08-10T08:00:51.660Z,2.10
2022-08-10T08:03:26.886Z,2.05
2022-08-10T08:06:05.615Z,1.90
2022-08-10T08:08:45.817Z,2.30
2022-08-10T08:11:25.477Z,2.05
2022-08-10T08:13:56.894Z,2.40
2022-08-10T08:16:27.120Z,2.03
2022-08-10T08:24:07.519Z,1.63
2022-08-10T08:24:41.047Z,2.50
2022-08-10T08:27:12.159Z,2.00
2022-08-10T08:29:44.272Z,1.80
2022-08-10T08:32:14.337Z,1.88
2022-08-10T08:34:46.413Z,2.20
2022-08-10T08:38:29.875Z,1.65
2022-08-10T08:40:14.557Z,2.08
2022-08-10T08:43:15.551Z,2.40
2022-08-10T08:46:06.675Z,2.00
2022-08-10T08:48:58.084Z,1.98
2022-08-10T08:52:07.273Z,1.60
2022-08-10T08:54:38.147Z,1.80
2022-08-10T08:57:49.560Z,2.10
2022-08-10T09:00:19.390Z,1.85
2022-08-10T09:03:22.926Z,1.83
2022-08-10T09:06:05.643Z,1.80
2022-08-10T09:09:02.546Z,1.92
2022-08-10T09:11:42.492Z,1.90
2022-08-10T09:14:25.821Z,1.90
2022-08-10T09:17:04.749Z,1.80
2022-08-10T09:19:39.957Z,2.17
2022-08-10T09:22:19.338Z,3.05
2022-08-10T09:24:55.394Z,2.00
2022-08-10T09:27:27.750Z,2.30
2022-08-10T09:30:01.689Z,1.85
2022-08-10T09:36:14.339Z,2.20
2022-08-10T09:36:22.449Z,2.20
2022-08-10T09:38:42.878Z,3.75
2022-08-10T09:41:24.154Z,2.60
2022-08-10T09:44:05.138Z,2.50
2022-08-10T09:46:51.970Z,2.70
2022-08-10T09:49:53.209Z,2.22
2022-08-10T09:52:30.049Z,1.98
2022-08-10T09:55:12.683Z,1.90
2022-08-10T09:57:58.917Z,1.60
2022-08-10T10:00:37.230Z,2.58
2022-08-10T10:03:20.564Z,1.60
2022-08-10T10:06:03.817Z,2.05
2022-08-10T10:08:43.185Z,2.00
2022-08-10T10:11:19.048Z,1.45
2022-08-10T10:14:03.134Z,1.30
2022-08-10T10:17:03.084Z,1.50
2022-08-10T10:19:51.616Z,1.27
2022-08-10T10:22:45.034Z,1.17
2022-08-10T10:25:22.979Z,1.48
2022-08-10T10:28:06.942Z,1.50
2022-08-10T10:30:47.195Z,1.27
2022-08-10T10:33:25.339Z,1.30
2022-08-10T10:35:55.652Z,1.33
2022-08-10T10:38:31.051Z,1.00
2022-08-10T10:41:11.722Z,1.20
2022-08-10T10:43:54.944Z,1.65
2022-08-10T10:46:40.678Z,0.98
2022-08-10T10:49:20.740Z,1.30
2022-08-10T10:52:02.194Z,1.10
2022-08-10T10:54:42.684Z,1.20
2022-08-10T10:57:18.655Z,1.00
2022-08-10T10:59:57.883Z,1.00
2022-08-10T11:02:45.026Z,9.68
2022-08-10T11:05:27.262Z,1.25
2022-08-10T11:08:01.505Z,0.80
2022-08-10T11:10:37.448Z,1.30
2022-08-10T11:14:28.535Z,0.80
2022-08-10T11:16:24.054Z,0.98
2022-08-10T11:19:04.206Z,0.80
2022-08-10T11:21:44.410Z,1.10
2022-08-10T11:24:44.404Z,1.15
2022-08-10T11:27:22.097Z,1.20
2022-08-10T11:30:03.219Z,0.80
2022-08-10T11:32:47.538Z,1.20
2022-08-10T11:35:31.588Z,1.07
2022-08-10T11:38:31.507Z,1.10
2022-08-10T11:42:07.189Z,1.00
2022-08-10T11:44:10.319Z,0.82
2022-08-10T11:46:47.047Z,0.80
2022-08-10T11:49:28.360Z,1.10
2022-08-10T11:52:04.525Z,1.00
2022-08-10T11:54:43.210Z,1.08
2022-08-10T11:57:13.684Z,1.15
2022-08-10T11:59:58.155Z,1.00
2022-08-10T12:02:33.033Z,1.00
2022-08-10T12:05:07.491Z,1.02
2022-08-10T12:10:06.816Z,1.20
2022-08-10T12:10:37.454Z,0.90
2022-08-10T12:13:13.888Z,1.00
2022-08-10T12:15:52.269Z,1.17
2022-08-10T12:18:25.380Z,1.40
2022-08-10T12:21:00.013Z,1.80
2022-08-10T12:23:39.489Z,1.30
2022-08-10T12:26:14.602Z,1.17
2022-08-10T12:28:52.472Z,1.50
2022-08-10T12:31:28.307Z,1.63
2022-08-10T12:34:09.896Z,1.40
2022-08-10T12:36:43.150Z,1.40
2022-08-10T12:39:18.484Z,1.30
2022-08-10T12:41:54.233Z,1.45
2022-08-10T12:44:41.809Z,1.40
2022-08-10T12:47:23.233Z,1.17
2022-08-10T12:50:29.301Z,1.48
2022-08-10T12:52:57.979Z,1.25
2022-08-10T12:55:31.267Z,1.35
2022-08-10T12:58:01.885Z,1.48
2022-08-10T13:00:59.602Z,1.45
2022-08-10T13:04:23.645Z,1.40
2022-08-10T13:06:23.385Z,1.40
2022-08-10T13:09:10.587Z,1.30
2022-08-10T13:12:34.922Z,1.50
2022-08-10T13:14:42.879Z,1.52
2022-08-10T13:17:14.421Z,1.30
2022-08-10T13:19:55.660Z,1.42
2022-08-10T13:22:30.441Z,1.50
2022-08-10T13:25:04.238Z,1.50
2022-08-10T13:28:01.331Z,1.52
2022-08-10T13:30:37.201Z,1.40
2022-08-10T13:33:10.698Z,1.55
2022-08-10T13:35:41.411Z,1.40
2022-08-10T13:38:11.544Z,1.80
2022-08-10T13:40:42.136Z,1.55
2022-08-10T13:43:14.797Z,1.80
2022-08-10T13:45:50.051Z,1.50
2022-08-10T13:48:22.718Z,1.35
2022-08-10T13:50:54.014Z,1.38
2022-08-10T13:53:28.858Z,1.38
2022-08-10T13:55:59.240Z,1.70
2022-08-10T13:58:32.943Z,1.60
2022-08-10T14:01:10.090Z,1.70
2022-08-10T14:03:42.380Z,1.50
2022-08-10T14:06:15.384Z,1.38
2022-08-10T14:08:50.446Z,1.40
2022-08-10T14:11:21.652Z,1.38
2022-08-10T14:13:57.475Z,1.30
2022-08-10T14:16:27.788Z,1.38
2022-08-10T14:18:59.553Z,1.38
2022-08-10T14:21:29.855Z,1.23
2022-08-10T14:23:59.561Z,1.10
2022-08-10T14:26:32.139Z,1.20
2022-08-10T14:29:09.376Z,1.20
2022-08-10T14:32:00.374Z,1.27
2022-08-10T14:36:16.159Z,1.27
2022-08-10T14:37:38.181Z,1.38
2022-08-10T14:40:13.283Z,1.53
2022-08-10T14:42:48.320Z,1.17
2022-08-10T14:45:25.388Z,1.40
2022-08-10T14:48:01.142Z,1.25
2022-08-10T14:50:34.503Z,1.58
2022-08-10T14:53:16.148Z,1.52
2022-08-10T14:55:58.895Z,1.50
2022-08-10T14:58:34.195Z,1.40
2022-08-10T15:01:06.798Z,1.20
2022-08-10T15:04:02.147Z,1.10
2022-08-10T15:06:32.479Z,1.00
2022-08-10T15:09:12.534Z,1.20
2022-08-10T15:12:13.858Z,1.05
2022-08-10T15:14:45.821Z,1.20
2022-08-10T15:17:26.283Z,0.98
2022-08-10T15:20:02.381Z,0.95
2022-08-10T15:22:40.493Z,0.95
2022-08-10T15:25:18.957Z,1.60
2022-08-10T15:27:53.468Z,1.17
2022-08-10T15:30:31.580Z,1.10
2022-08-10T15:33:57.399Z,1.10
2022-08-10T15:36:35.835Z,1.10
2022-08-10T15:39:17.225Z,0.70
2022-08-10T15:42:01.825Z,1.17
2022-08-10T15:44:40.230Z,1.10
2022-08-10T15:47:15.093Z,1.30
2022-08-10T15:49:54.365Z,1.02
2022-08-10T15:52:39.797Z,1.20
2022-08-10T15:55:42.492Z,1.10
2022-08-10T15:58:19.089Z,1.10
2022-08-10T16:00:56.423Z,0.90
2022-08-10T16:03:35.913Z,1.20
2022-08-10T16:06:07.689Z,1.10
2022-08-10T16:08:56.753Z,1.30
2022-08-10T16:11:38.775Z,1.60
2022-08-10T16:14:17.402Z,1.17
2022-08-10T16:16:51.345Z,1.30
2022-08-10T16:22:04.526Z,1.23
2022-08-10T16:24:56.075Z,1.05
2022-08-10T16:27:28.697Z,0.98
2022-08-10T16:30:00.799Z,1.23
2022-08-10T16:32:35.429Z,1.30
2022-08-10T16:35:08.853Z,1.30
2022-08-10T16:37:58.736Z,1.20
2022-08-10T16:40:30.392Z,1.15
2022-08-10T16:43:02.419Z,1.13
2022-08-10T16:45:36.144Z,1.50
2022-08-10T16:48:08.939Z,1.30
2022-08-10T16:50:41.931Z,1.30
2022-08-10T16:53:17.102Z,1.42
2022-08-10T16:55:50.854Z,1.80
2022-08-10T16:58:25.155Z,2.30
2022-08-10T17:00:58.799Z,2.37
2022-08-10T17:04:08.196Z,2.50
2022-08-10T17:06:24.494Z,4.22
2022-08-10T17:08:58.096Z,2.90
2022-08-10T17:11:32.213Z,1.63
2022-08-10T17:14:03.869Z,1.50
2022-08-10T17:16:37.483Z,1.73
2022-08-10T17:19:13.137Z,1.93
2022-08-10T17:21:51.049Z,2.28
2022-08-10T17:24:28.178Z,2.45
2022-08-10T17:27:01.425Z,1.60
2022-08-10T17:30:02.811Z,1.65
2022-08-10T17:32:44.248Z,1.33
2022-08-10T17:35:23.142Z,1.60
2022-08-10T17:37:57.646Z,1.90
2022-08-10T17:40:31.262Z,1.70
2022-08-10T17:43:02.854Z,2.10
2022-08-10T17:45:47.723Z,2.38
2022-08-10T17:48:19.876Z,1.90
2022-08-10T17:50:52.400Z,2.00
2022-08-10T17:53:29.852Z,1.95
2022-08-10T17:58:31.716Z,1.70
2022-08-10T18:01:41.263Z,1.58
2022-08-10T18:03:55.518Z,1.75
2022-08-10T18:06:26.816Z,1.90
2022-08-10T18:09:02.050Z,1.85
2022-08-10T18:11:35.096Z,1.75
2022-08-10T18:14:07.471Z,2.03
2022-08-10T18:16:41.833Z,1.77
2022-08-10T18:19:15.901Z,1.88
2022-08-10T18:21:48.796Z,1.90
2022-08-10T18:24:20.093Z,2.13
2022-08-10T18:26:52.762Z,2.90
2022-08-10T18:29:27.197Z,2.05
2022-08-10T18:32:00.065Z,2.13
2022-08-10T18:34:32.016Z,2.15
2022-08-10T18:37:03.983Z,1.92
2022-08-10T18:39:36.341Z,2.58
2022-08-10T18:42:13.131Z,1.88
2022-08-10T18:44:45.846Z,2.13
2022-08-10T18:47:17.771Z,2.47
2022-08-10T18:50:00.028Z,2.35
2022-08-10T18:52:34.890Z,2.00
2022-08-10T18:55:23.231Z,2.37
2022-08-10T18:58:14.263Z,2.10
2022-08-10T19:01:01.016Z,2.25
2022-08-10T19:03:54.782Z,2.15
2022-08-10T19:06:53.264Z,2.22
2022-08-10T19:09:46.712Z,3.17
2022-08-10T19:12:33.371Z,2.10
2022-08-10T19:15:19.196Z,2.22
2022-08-10T19:18:07.537Z,6.10
2022-08-10T19:20:45.189Z,4.80
2022-08-10T19:23:34.821Z,5.55
2022-08-10T19:26:44.054Z,6.35
2022-08-10T19:30:00.856Z,4.82
2022-08-10T19:32:26.139Z,5.43
2022-08-10T19:35:08.927Z,5.40
2022-08-10T19:38:00.644Z,7.47
2022-08-10T19:40:44.537Z,10.05
2022-08-10T19:43:59.246Z,9.05
2022-08-10T19:46:28.386Z,7.70
2022-08-10T19:49:04.925Z,6.07
2022-08-10T19:51:48.531Z,7.45
2022-08-10T19:54:26.750Z,7.28
2022-08-10T19:57:04.868Z,4.95
2022-08-10T20:00:16.477Z,4.60
2022-08-10T20:02:52.545Z,4.65
2022-08-10T20:05:32.133Z,4.50
2022-08-10T20:08:09.299Z,4.13
2022-08-10T20:10:46.640Z,3.83
2022-08-10T20:13:23.641Z,4.25
2022-08-10T20:16:00.120Z,5.68
2022-08-10T20:18:36.218Z,4.75
2022-08-10T20:21:13.642Z,4.20
2022-08-10T20:23:53.894Z,4.30
2022-08-10T20:26:28.689Z,4.18
2022-08-10T20:29:08.334Z,3.53
2022-08-10T20:31:44.489Z,3.63
2022-08-10T20:34:21.879Z,3.60
2022-08-10T20:37:05.842Z,3.17
2022-08-10T20:39:47.726Z,3.60
2022-08-10T20:42:23.207Z,3.60
2022-08-10T20:45:00.192Z,4.10
2022-08-10T20:47:53.806Z,3.55
2022-08-10T20:50:32.389Z,3.83
2022-08-10T20:53:07.658Z,3.20
2022-08-10T20:55:53.855Z,3.47
2022-08-10T20:59:00.473Z,2.97
2022-08-10T21:02:05.762Z,3.22
2022-08-10T21:04:51.610Z,4.32
2022-08-10T21:08:01.101Z,3.30
2022-08-10T21:10:42.802Z,3.63
2022-08-10T21:13:25.809Z,4.95
2022-08-10T21:16:04.629Z,3.85
2022-08-10T21:19:00.404Z,3.50
2022-08-10T21:21:59.195Z,4.13
2022-08-10T21:24:38.843Z,4.80
2022-08-10T21:27:48.531Z,3.83
2022-08-10T21:30:19.630Z,4.63
2022-08-10T21:32:59.354Z,4.97
2022-08-10T21:35:36.815Z,3.80
2022-08-10T21:38:13.862Z,3.75
2022-08-10T21:41:17.007Z,3.45
2022-08-10T21:44:08.741Z,5.57
2022-08-10T21:50:03.960Z,4.13
2022-08-10T21:53:04.181Z,3.22
2022-08-10T21:56:02.301Z,3.33
2022-08-10T21:58:55.460Z,3.80
2022-08-10T22:01:51.440Z,3.42
2022-08-10T22:04:40.165Z,3.85
2022-08-10T22:07:36.515Z,3.90
2022-08-10T22:10:25.573Z,4.05
2022-08-10T22:13:17.462Z,3.28
2022-08-10T22:16:11.970Z,3.58
2022-08-10T22:19:04.857Z,3.28
2022-08-10T22:22:27.397Z,3.90
2022-08-10T22:25:39.691Z,3.40
2022-08-10T22:28:26.530Z,3.40
2022-08-10T22:34:45.319Z,3.70
2022-08-10T22:40:35.735Z,3.58
2022-08-10T22:43:36.488Z,3.15
2022-08-10T22:46:32.011Z,3.67
2022-08-10T22:49:00.542Z,3.40
2022-08-10T22:51:53.757Z,3.70
2022-08-10T22:54:46.664Z,3.67
2022-08-10T22:57:34.453Z,4.00
2022-08-10T23:00:14.371Z,3.67
2022-08-10T23:02:51.655Z,3.60
2022-08-10T23:05:33.678Z,4.10
2022-08-10T23:08:30.048Z,4.35
2022-08-10T23:11:05.313Z,3.65
2022-08-10T23:13:38.296Z,4.30
2022-08-10T23:16:32.810Z,4.10
2022-08-10T23:19:11.622Z,3.40
2022-08-10T23:22:04.119Z,3.63
2022-08-10T23:24:39.110Z,4.00
2022-08-10T23:27:13.067Z,4.00
2022-08-10T23:30:09.708Z,3.90
2022-08-10T23:32:43.425Z,3.67
2022-08-10T23:36:29.877Z,3.70
2022-08-10T23:38:07.131Z,3.90
2022-08-10T23:40:38.332Z,4.10
2022-08-10T23:43:08.832Z,3.33
2022-08-10T23:45:53.652Z,4.15
2022-08-10T23:48:27.288Z,4.93
2022-08-10T23:51:00.253Z,3.90
2022-08-10T23:53:32.701Z,4.00
2022-08-10T23:56:07.959Z,3.72
2022-08-10T23:58:42.068Z,4.40
